createdAt,value
2017-10-20T00:00:15.580Z,14.50
2017-10-20T00:02:43.759Z,14.50
2017-10-20T00:05:12.694Z,13.90
2017-10-20T00:07:40.859Z,13.90
2017-10-20T00:10:09.041Z,14.10
2017-10-20T00:12:37.191Z,14.10
2017-10-20T00:15:05.369Z,14.20
2017-10-20T00:17:33.593Z,14.30
2017-10-20T00:20:01.789Z,14.30
2017-10-20T00:22:30.735Z,14.30
2017-10-20T00:24:58.913Z,14.20
2017-10-20T00:27:27.913Z,13.90
2017-10-20T00:29:56.846Z,14.00
2017-10-20T00:32:25.014Z,14.00
2017-10-20T00:34:53.170Z,14.20
2017-10-20T00:37:21.347Z,14.30
2017-10-20T00:39:50.334Z,14.10
2017-10-20T00:42:19.263Z,14.30
2017-10-20T00:44:47.408Z,14.30
2017-10-20T00:47:15.597Z,14.40
2017-10-20T00:49:43.792Z,14.30
2017-10-20T00:52:11.952Z,14.30
2017-10-20T00:54:40.115Z,14.40
2017-10-20T00:57:08.269Z,14.40
2017-10-20T00:59:36.444Z,14.50
2017-10-20T01:02:04.607Z,14.50
2017-10-20T01:04:33.542Z,14.50
2017-10-20T01:07:01.721Z,14.40
2017-10-20T01:09:29.899Z,14.50
2017-10-20T01:11:58.065Z,14.50
2017-10-20T01:14:26.248Z,14.50
2017-10-20T01:16:54.434Z,14.50
2017-10-20T01:19:22.613Z,14.30
2017-10-20T01:21:50.783Z,14.20
2017-10-20T01:24:18.958Z,14.30
2017-10-20T01:26:47.117Z,14.40
2017-10-20T01:29:15.331Z,14.00
2017-10-20T01:31:44.289Z,13.90
2017-10-20T01:34:12.449Z,13.90
2017-10-20T01:36:40.613Z,14.10
2017-10-20T01:39:08.779Z,14.30
2017-10-20T01:41:36.937Z,14.30
2017-10-20T01:44:05.169Z,14.40
2017-10-20T01:46:33.319Z,14.20
2017-10-20T01:49:02.269Z,14.00
2017-10-20T01:51:31.211Z,13.80
2017-10-20T01:53:59.400Z,13.80
2017-10-20T01:56:27.572Z,13.80
2017-10-20T01:58:55.742Z,14.00
2017-10-20T02:01:23.914Z,14.00
2017-10-20T02:03:52.062Z,13.90
2017-10-20T02:06:20.241Z,14.10
2017-10-20T02:08:48.409Z,14.20
2017-10-20T02:11:16.586Z,13.90
2017-10-20T02:13:44.749Z,13.80
2017-10-20T02:16:12.966Z,13.70
2017-10-20T02:18:41.116Z,13.30
2017-10-20T02:21:09.283Z,13.10
2017-10-20T02:23:37.450Z,13.00
2017-10-20T02:26:05.629Z,13.20
2017-10-20T02:28:33.769Z,13.40
2017-10-20T02:31:01.934Z,13.20
2017-10-20T02:33:30.920Z,13.00
2017-10-20T02:35:59.845Z,12.90
2017-10-20T02:38:28.031Z,12.90
2017-10-20T02:40:56.212Z,13.00
2017-10-20T02:43:24.365Z,13.30
2017-10-20T02:45:52.552Z,13.40
2017-10-20T02:48:20.746Z,13.50
2017-10-20T02:50:48.917Z,13.60
2017-10-20T02:53:17.106Z,13.60
2017-10-20T02:55:45.294Z,13.60
2017-10-20T02:58:14.398Z,13.60
2017-10-20T03:00:43.316Z,13.50
2017-10-20T03:03:13.189Z,13.50
2017-10-20T03:05:41.425Z,13.50
2017-10-20T03:08:09.770Z,13.60
2017-10-20T03:10:38.694Z,13.80
2017-10-20T03:13:06.935Z,13.80
2017-10-20T03:15:35.871Z,14.00
2017-10-20T03:18:04.026Z,14.00
2017-10-20T03:20:32.219Z,14.00
2017-10-20T03:23:00.403Z,14.10
2017-10-20T03:25:28.543Z,14.00
2017-10-20T03:27:56.707Z,13.90
2017-10-20T03:30:24.903Z,13.90
2017-10-20T03:32:53.045Z,13.70
2017-10-20T03:35:21.223Z,13.90
2017-10-20T03:37:49.410Z,14.00
2017-10-20T03:40:17.592Z,14.10
2017-10-20T03:42:45.759Z,14.20
2017-10-20T03:45:13.945Z,14.30
2017-10-20T03:47:42.096Z,14.40
2017-10-20T03:50:10.285Z,14.50
2017-10-20T03:52:38.468Z,14.40
2017-10-20T03:55:06.625Z,14.40
2017-10-20T03:57:34.801Z,14.50
2017-10-20T04:00:02.972Z,14.40
2017-10-20T04:02:32.202Z,14.30
2017-10-20T04:05:00.367Z,14.40
2017-10-20T04:07:28.539Z,14.40
2017-10-20T04:09:56.699Z,14.30
2017-10-20T04:12:24.919Z,14.20
2017-10-20T04:14:53.099Z,14.10
2017-10-20T04:17:21.279Z,14.00
2017-10-20T04:19:49.550Z,13.90
2017-10-20T04:22:18.122Z,13.90
2017-10-20T04:24:47.574Z,13.80
2017-10-20T04:27:15.759Z,13.90
2017-10-20T04:29:43.966Z,14.00
2017-10-20T04:32:12.139Z,14.00
2017-10-20T04:34:40.380Z,14.00
2017-10-20T04:37:08.565Z,13.90
2017-10-20T04:39:37.887Z,14.00
2017-10-20T04:42:06.045Z,14.10
2017-10-20T04:44:34.224Z,14.00
2017-10-20T04:47:02.385Z,14.10
2017-10-20T04:49:30.607Z,13.90
2017-10-20T04:51:58.774Z,13.90
2017-10-20T04:54:26.965Z,13.90
2017-10-20T04:56:55.946Z,14.00
2017-10-20T04:59:24.126Z,14.00
2017-10-20T05:01:53.633Z,13.80
2017-10-20T05:04:23.470Z,13.90
2017-10-20T05:06:51.667Z,13.90
2017-10-20T05:09:19.839Z,14.10
2017-10-20T05:11:48.004Z,13.90
2017-10-20T05:14:16.189Z,13.70
2017-10-20T05:16:44.340Z,13.70
2017-10-20T05:19:12.569Z,13.70
2017-10-20T05:21:41.516Z,13.60
2017-10-20T05:24:09.733Z,13.60
2017-10-20T05:26:38.663Z,13.70
2017-10-20T05:29:06.890Z,13.70
2017-10-20T05:31:35.842Z,14.10
2017-10-20T05:34:04.039Z,14.10
2017-10-20T05:36:32.267Z,14.20
2017-10-20T05:39:00.427Z,14.10
2017-10-20T05:41:28.659Z,14.10
2017-10-20T05:43:57.010Z,14.00
2017-10-20T05:46:25.351Z,13.90
2017-10-20T05:48:53.544Z,13.80
2017-10-20T05:51:21.728Z,13.80
2017-10-20T05:53:49.925Z,13.80
2017-10-20T05:56:18.140Z,13.80
2017-10-20T05:58:47.116Z,13.90
2017-10-20T06:01:15.295Z,13.90
2017-10-20T06:03:43.525Z,13.80
2017-10-20T06:06:11.699Z,13.90
2017-10-20T06:08:39.924Z,13.90
2017-10-20T06:11:08.094Z,14.00
2017-10-20T06:13:36.976Z,13.70
2017-10-20T06:16:05.146Z,13.80
2017-10-20T06:18:34.086Z,13.90
2017-10-20T06:21:02.281Z,13.90
2017-10-20T06:23:30.500Z,14.10
2017-10-20T06:26:00.479Z,14.10
2017-10-20T06:28:28.645Z,14.10
2017-10-20T06:30:56.815Z,13.90
2017-10-20T06:33:24.985Z,13.80
2017-10-20T06:35:53.178Z,13.90
2017-10-20T06:38:21.345Z,14.10
2017-10-20T06:40:49.531Z,14.10
2017-10-20T06:43:17.705Z,13.90
2017-10-20T06:45:45.895Z,13.80
2017-10-20T06:48:14.090Z,13.80
2017-10-20T06:50:43.018Z,13.80
2017-10-20T06:53:11.204Z,13.80
2017-10-20T06:55:39.495Z,13.90
2017-10-20T06:58:07.947Z,14.00
2017-10-20T07:00:36.118Z,14.00
2017-10-20T07:03:04.306Z,14.10
2017-10-20T07:05:33.226Z,14.20
2017-10-20T07:08:02.181Z,14.20
2017-10-20T07:10:33.020Z,13.50
2017-10-20T07:13:01.989Z,13.50
2017-10-20T07:15:30.153Z,13.40
2017-10-20T07:17:58.355Z,13.50
2017-10-20T07:20:28.987Z,13.30
2017-10-20T07:22:57.913Z,13.70
2017-10-20T07:25:26.090Z,13.70
2017-10-20T07:27:54.241Z,13.90
2017-10-20T07:30:23.224Z,13.80
2017-10-20T07:32:52.143Z,13.90
2017-10-20T07:35:20.339Z,13.90
2017-10-20T07:37:48.493Z,13.90
2017-10-20T07:40:16.625Z,13.90
2017-10-20T07:42:44.824Z,13.70
2017-10-20T07:45:14.776Z,13.90
2017-10-20T07:47:42.962Z,13.90
2017-10-20T07:50:11.149Z,14.10
2017-10-20T07:52:39.350Z,14.20
2017-10-20T07:55:08.837Z,14.00
2017-10-20T07:57:37.013Z,14.00
2017-10-20T08:00:05.228Z,13.80
2017-10-20T08:02:33.376Z,14.00
2017-10-20T08:05:02.343Z,14.20
2017-10-20T08:07:30.566Z,14.20
2017-10-20T08:09:58.777Z,14.20
2017-10-20T08:12:27.707Z,14.40
2017-10-20T08:14:55.893Z,14.40
2017-10-20T08:17:25.351Z,14.40
2017-10-20T08:19:53.529Z,14.40
2017-10-20T08:22:21.720Z,14.40
2017-10-20T08:24:49.914Z,14.60
2017-10-20T08:27:18.889Z,14.80
2017-10-20T08:29:47.050Z,14.80
2017-10-20T08:32:15.289Z,14.80
2017-10-20T08:34:43.449Z,14.90
2017-10-20T08:37:11.641Z,14.90
2017-10-20T08:39:39.798Z,15.00
2017-10-20T08:42:08.112Z,15.00
2017-10-20T08:44:37.038Z,15.10
2017-10-20T08:47:05.298Z,15.10
2017-10-20T08:49:33.505Z,15.20
2017-10-20T08:52:02.536Z,15.30
2017-10-20T08:54:32.028Z,15.30
2017-10-20T08:57:00.185Z,15.30
2017-10-20T08:59:28.364Z,15.40
2017-10-20T09:01:56.537Z,15.40
2017-10-20T09:04:24.711Z,15.50
2017-10-20T09:06:52.978Z,15.40
2017-10-20T09:09:21.900Z,15.50
2017-10-20T09:11:50.073Z,15.50
2017-10-20T09:14:19.849Z,15.70
2017-10-20T09:16:48.056Z,15.70
2017-10-20T09:19:17.689Z,15.80
2017-10-20T09:21:45.949Z,15.80
2017-10-20T09:24:14.206Z,15.90
2017-10-20T09:26:42.381Z,15.90
2017-10-20T09:29:10.570Z,15.90
2017-10-20T09:31:38.732Z,16.00
2017-10-20T09:34:06.927Z,16.10
2017-10-20T09:36:35.109Z,16.20
2017-10-20T09:39:03.292Z,16.30
2017-10-20T09:41:31.478Z,16.40
2017-10-20T09:43:59.639Z,16.40
2017-10-20T09:46:27.814Z,16.40
2017-10-20T09:48:55.999Z,16.30
2017-10-20T09:51:24.222Z,16.30
2017-10-20T09:53:54.349Z,16.40
2017-10-20T09:56:22.520Z,16.30
2017-10-20T09:58:50.711Z,16.40
2017-10-20T10:01:18.895Z,16.30
2017-10-20T10:03:47.109Z,16.20
2017-10-20T10:06:16.052Z,16.20
2017-10-20T10:08:44.233Z,16.20
2017-10-20T10:11:12.386Z,16.20
2017-10-20T10:13:40.570Z,16.20
2017-10-20T10:16:08.768Z,16.20
2017-10-20T10:18:36.934Z,16.30
2017-10-20T10:21:06.633Z,16.40
2017-10-20T10:23:34.876Z,16.40
2017-10-20T10:26:03.023Z,16.50
2017-10-20T10:28:31.975Z,16.50
2017-10-20T10:31:00.132Z,16.50
2017-10-20T10:33:28.298Z,16.60
2017-10-20T10:35:58.169Z,16.70
2017-10-20T10:38:27.111Z,16.60
2017-10-20T10:40:55.287Z,16.60
2017-10-20T10:43:25.725Z,16.60
2017-10-20T10:45:54.669Z,16.60
2017-10-20T10:48:24.218Z,16.60
2017-10-20T10:50:53.380Z,16.60
2017-10-20T10:53:24.544Z,16.80
2017-10-20T10:55:52.726Z,16.80
2017-10-20T10:58:21.638Z,16.80
2017-10-20T11:00:49.818Z,16.90
2017-10-20T11:03:17.974Z,17.10
2017-10-20T11:05:58.168Z,17.20
2017-10-20T11:08:38.109Z,17.20
2017-10-20T11:11:18.105Z,17.30
2017-10-20T11:13:46.323Z,17.30
2017-10-20T11:16:14.718Z,17.40
2017-10-20T11:18:42.895Z,17.40
2017-10-20T11:21:11.041Z,17.40
2017-10-20T11:23:39.254Z,17.60
2017-10-20T11:26:09.551Z,17.50
2017-10-20T11:28:37.729Z,17.40
2017-10-20T11:31:08.646Z,17.50
2017-10-20T11:33:37.770Z,17.50
2017-10-20T11:36:06.947Z,17.70
2017-10-20T11:38:35.802Z,17.80
2017-10-20T11:41:04.749Z,17.90
2017-10-20T11:43:32.987Z,17.90
2017-10-20T11:46:01.251Z,17.90
2017-10-20T11:48:30.346Z,17.90
2017-10-20T11:50:59.315Z,17.90
2017-10-20T11:53:27.476Z,17.90
2017-10-20T11:55:55.653Z,17.80
2017-10-20T11:58:23.848Z,17.80
2017-10-20T12:00:52.028Z,17.70
2017-10-20T12:03:20.190Z,17.70
2017-10-20T12:05:49.421Z,17.60
2017-10-20T12:08:18.783Z,17.70
2017-10-20T12:10:47.743Z,17.60
2017-10-20T12:13:15.938Z,17.70
2017-10-20T12:15:44.878Z,17.60
2017-10-20T12:18:13.374Z,17.70
2017-10-20T12:20:41.525Z,17.60
2017-10-20T12:23:09.711Z,17.60
2017-10-20T12:25:37.876Z,17.60
2017-10-20T12:28:06.553Z,17.70
2017-10-20T12:30:34.758Z,17.70
2017-10-20T12:33:03.705Z,17.60
2017-10-20T12:35:31.878Z,17.60
2017-10-20T12:38:00.070Z,17.60
2017-10-20T12:40:29.057Z,17.60
2017-10-20T12:42:57.990Z,17.60
2017-10-20T12:45:26.187Z,17.60
2017-10-20T12:47:54.977Z,17.70
2017-10-20T12:50:23.137Z,17.50
2017-10-20T12:52:51.321Z,17.20
2017-10-20T12:55:20.097Z,17.00
2017-10-20T12:57:48.293Z,16.90
2017-10-20T13:00:16.467Z,16.60
2017-10-20T13:02:44.670Z,16.50
2017-10-20T13:05:14.423Z,16.50
2017-10-20T13:07:42.619Z,16.50
2017-10-20T13:10:10.826Z,16.60
2017-10-20T13:12:39.759Z,16.50
2017-10-20T13:15:07.925Z,16.50
2017-10-20T13:17:36.100Z,16.60
2017-10-20T13:20:04.320Z,16.50
2017-10-20T13:22:33.344Z,16.50
2017-10-20T13:25:01.689Z,16.50
2017-10-20T13:27:30.645Z,16.40
2017-10-20T13:30:00.671Z,16.50
2017-10-20T13:32:29.432Z,16.40
2017-10-20T13:34:57.630Z,16.50
2017-10-20T13:37:25.809Z,16.60
2017-10-20T13:39:54.937Z,16.50
2017-10-20T13:42:23.921Z,16.40
2017-10-20T13:44:52.072Z,16.40
2017-10-20T13:47:21.626Z,16.40
2017-10-20T13:49:50.569Z,16.30
2017-10-20T13:52:18.840Z,16.30
2017-10-20T13:54:47.899Z,16.30
2017-10-20T13:57:16.098Z,16.30
2017-10-20T13:59:44.287Z,16.40
2017-10-20T14:02:12.504Z,16.30
2017-10-20T14:04:41.449Z,16.30
2017-10-20T14:07:09.662Z,16.30
2017-10-20T14:09:38.609Z,16.20
2017-10-20T14:12:06.878Z,16.20
2017-10-20T14:14:36.069Z,16.20
2017-10-20T14:17:04.385Z,16.20
2017-10-20T14:19:32.557Z,16.30
2017-10-20T14:22:00.785Z,16.40
2017-10-20T14:24:28.948Z,16.40
2017-10-20T14:26:57.901Z,16.40
2017-10-20T14:29:26.077Z,16.30
2017-10-20T14:31:54.236Z,16.30
2017-10-20T14:34:22.443Z,16.30
2017-10-20T14:36:50.676Z,16.30
2017-10-20T14:39:19.868Z,16.30
2017-10-20T14:41:48.828Z,15.90
2017-10-20T14:44:18.580Z,15.90
2017-10-20T14:46:47.490Z,15.70
2017-10-20T14:49:15.685Z,15.70
2017-10-20T14:51:43.877Z,15.90
2017-10-20T14:54:12.082Z,15.90
2017-10-20T14:56:41.883Z,15.90
2017-10-20T14:59:10.096Z,15.90
2017-10-20T15:01:38.287Z,15.90
2017-10-20T15:04:07.418Z,16.00
2017-10-20T15:06:35.571Z,15.90
2017-10-20T15:09:03.780Z,15.90
2017-10-20T15:11:32.881Z,15.90
2017-10-20T15:14:02.030Z,15.90
2017-10-20T15:16:30.211Z,15.90
2017-10-20T15:18:58.475Z,15.90
2017-10-20T15:21:26.667Z,15.90
2017-10-20T15:23:55.646Z,15.90
2017-10-20T15:26:23.819Z,15.90
2017-10-20T15:28:52.922Z,16.00
2017-10-20T15:31:21.877Z,16.10
2017-10-20T15:33:50.791Z,15.90
2017-10-20T15:36:19.092Z,15.90
2017-10-20T15:38:48.031Z,16.00
2017-10-20T15:41:16.969Z,16.00
2017-10-20T15:43:45.139Z,15.90
2017-10-20T15:46:13.309Z,15.90
2017-10-20T15:48:41.495Z,15.90
2017-10-20T15:51:09.659Z,15.90
2017-10-20T15:53:37.824Z,15.90
2017-10-20T15:56:06.800Z,15.90
2017-10-20T15:58:34.970Z,15.90
2017-10-20T16:01:03.191Z,15.80
2017-10-20T16:03:31.425Z,15.80
2017-10-20T16:06:00.357Z,16.00
2017-10-20T16:08:30.378Z,15.80
2017-10-20T16:10:59.293Z,15.70
2017-10-20T16:13:27.495Z,15.70
2017-10-20T16:15:56.253Z,15.70
2017-10-20T16:18:24.464Z,15.90
2017-10-20T16:20:52.593Z,15.80
2017-10-20T16:23:20.782Z,15.90
2017-10-20T16:25:48.955Z,15.90
2017-10-20T16:28:17.138Z,15.80
2017-10-20T16:30:45.300Z,15.80
2017-10-20T16:33:13.446Z,15.90
2017-10-20T16:35:41.665Z,16.00
2017-10-20T16:38:09.822Z,15.90
2017-10-20T16:40:37.993Z,16.00
2017-10-20T16:43:06.166Z,15.90
2017-10-20T16:45:34.364Z,15.80
2017-10-20T16:48:02.623Z,15.80
2017-10-20T16:50:30.819Z,15.70
2017-10-20T16:53:00.054Z,15.60
2017-10-20T16:55:29.008Z,15.70
2017-10-20T16:57:57.195Z,15.70
2017-10-20T17:00:26.195Z,15.60
2017-10-20T17:02:54.361Z,15.60
2017-10-20T17:05:22.508Z,15.60
2017-10-20T17:07:50.675Z,15.50
2017-10-20T17:10:18.849Z,15.50
2017-10-20T17:12:47.007Z,15.50
2017-10-20T17:15:15.176Z,15.50
2017-10-20T17:17:44.147Z,15.50
2017-10-20T17:20:13.116Z,15.50
2017-10-20T17:22:41.460Z,15.50
2017-10-20T17:25:09.634Z,15.50
2017-10-20T17:27:37.810Z,15.40
2017-10-20T17:30:06.011Z,15.40
2017-10-20T17:32:34.204Z,15.40
2017-10-20T17:35:04.045Z,15.40
2017-10-20T17:37:32.236Z,15.40
2017-10-20T17:40:00.408Z,15.40
2017-10-20T17:42:28.598Z,15.40
2017-10-20T17:44:56.810Z,15.30
2017-10-20T17:47:25.013Z,15.40
2017-10-20T17:49:53.330Z,15.40
2017-10-20T17:52:21.462Z,15.50
2017-10-20T17:54:49.651Z,15.50
2017-10-20T17:57:17.833Z,15.50
2017-10-20T17:59:46.011Z,15.50
2017-10-20T18:02:14.205Z,15.50
2017-10-20T18:04:42.976Z,15.50
2017-10-20T18:07:11.124Z,15.40
2017-10-20T18:09:39.324Z,15.30
2017-10-20T18:12:07.496Z,15.30
2017-10-20T18:14:35.680Z,15.40
2017-10-20T18:17:03.885Z,15.40
2017-10-20T18:19:32.062Z,15.40
2017-10-20T18:22:01.028Z,15.40
2017-10-20T18:24:30.924Z,15.40
2017-10-20T18:27:00.285Z,15.40
2017-10-20T18:29:29.215Z,15.40
2017-10-20T18:31:57.467Z,15.40
2017-10-20T18:34:25.615Z,15.40
2017-10-20T18:36:53.803Z,15.40
2017-10-20T18:39:21.980Z,15.30
2017-10-20T18:41:50.158Z,15.30
2017-10-20T18:44:18.546Z,15.30
2017-10-20T18:46:48.651Z,15.20
2017-10-20T18:49:18.021Z,15.20
2017-10-20T18:51:46.215Z,15.20
2017-10-20T18:54:14.407Z,15.20
2017-10-20T18:56:43.505Z,15.10
2017-10-20T18:59:11.677Z,15.10
2017-10-20T19:01:40.332Z,15.10
2017-10-20T19:04:08.535Z,15.00
2017-10-20T19:06:37.565Z,15.00
2017-10-20T19:09:09.522Z,15.00
2017-10-20T19:11:39.249Z,14.90
2017-10-20T19:14:07.433Z,14.90
2017-10-20T19:16:35.621Z,14.90
2017-10-20T19:19:04.427Z,14.90
2017-10-20T19:21:32.603Z,14.90
2017-10-20T19:24:00.773Z,15.00
2017-10-20T19:26:29.007Z,15.00
2017-10-20T19:28:57.269Z,15.00
2017-10-20T19:31:25.449Z,15.10
2017-10-20T19:33:53.622Z,15.00
2017-10-20T19:36:21.815Z,15.10
2017-10-20T19:38:49.968Z,15.20
2017-10-20T19:41:18.154Z,15.10
2017-10-20T19:43:46.338Z,15.20
2017-10-20T19:46:14.524Z,15.30
2017-10-20T19:48:42.720Z,15.30
2017-10-20T19:51:10.915Z,15.40
2017-10-20T19:53:39.862Z,15.20
2017-10-20T19:56:09.853Z,15.20
2017-10-20T19:58:38.117Z,15.10
2017-10-20T20:01:06.327Z,15.00
2017-10-20T20:03:34.533Z,15.20
2017-10-20T20:06:04.230Z,15.40
2017-10-20T20:08:32.410Z,15.40
2017-10-20T20:11:01.538Z,15.20
2017-10-20T20:13:30.491Z,15.30
2017-10-20T20:15:58.644Z,15.30
2017-10-20T20:18:26.821Z,15.30
2017-10-20T20:20:55.033Z,15.30
2017-10-20T20:23:23.964Z,15.30
2017-10-20T20:25:52.145Z,15.20
2017-10-20T20:28:20.313Z,15.20
2017-10-20T20:30:49.444Z,15.20
2017-10-20T20:33:32.476Z,15.30
2017-10-20T20:36:00.673Z,15.30
2017-10-20T20:38:29.594Z,15.40
2017-10-20T20:40:57.771Z,15.40
2017-10-20T20:43:25.923Z,15.40
2017-10-20T20:45:54.098Z,15.30
2017-10-20T20:48:22.345Z,15.10
2017-10-20T20:50:51.928Z,15.10
2017-10-20T20:53:20.086Z,15.10
2017-10-20T20:55:49.022Z,15.10
2017-10-20T20:58:17.943Z,15.10
2017-10-20T21:00:46.147Z,15.00
2017-10-20T21:03:14.315Z,15.10
2017-10-20T21:05:42.486Z,15.20
2017-10-20T21:08:10.674Z,15.10
2017-10-20T21:10:39.643Z,15.10
2017-10-20T21:13:08.617Z,15.10
2017-10-20T21:15:37.529Z,14.90
2017-10-20T21:18:06.620Z,14.80
2017-10-20T21:20:35.893Z,14.90
2017-10-20T21:23:05.550Z,14.90
2017-10-20T21:25:34.545Z,14.90
2017-10-20T21:28:02.712Z,15.00
2017-10-20T21:30:30.893Z,15.10
2017-10-20T21:32:59.059Z,15.10
2017-10-20T21:35:27.245Z,15.20
2017-10-20T21:37:55.407Z,15.20
2017-10-20T21:40:24.832Z,15.20
2017-10-20T21:42:52.985Z,15.20
2017-10-20T21:45:21.195Z,15.20
2017-10-20T21:47:49.341Z,15.20
2017-10-20T21:50:17.520Z,15.10
2017-10-20T21:52:45.682Z,14.70
2017-10-20T21:55:13.876Z,14.70
2017-10-20T21:57:42.060Z,14.60
2017-10-20T22:00:10.221Z,14.70
2017-10-20T22:02:38.390Z,14.60
2017-10-20T22:05:06.540Z,14.70
2017-10-20T22:07:35.650Z,14.50
2017-10-20T22:10:03.816Z,14.40
2017-10-20T22:12:32.015Z,14.50
2017-10-20T22:15:00.209Z,14.60
2017-10-20T22:17:30.905Z,14.70
2017-10-20T22:19:59.860Z,14.70
2017-10-20T22:22:28.224Z,14.70
2017-10-20T22:24:57.295Z,14.60
2017-10-20T22:27:25.448Z,14.60
2017-10-20T22:29:53.655Z,14.70
2017-10-20T22:32:21.839Z,14.80
2017-10-20T22:34:51.608Z,14.80
2017-10-20T22:37:20.361Z,14.70
2017-10-20T22:39:49.340Z,14.70
2017-10-20T22:42:17.512Z,14.70
2017-10-20T22:44:46.445Z,14.50
2017-10-20T22:47:14.701Z,14.40
2017-10-20T22:49:42.857Z,14.60
2017-10-20T22:52:11.009Z,14.60
2017-10-20T22:54:39.937Z,14.60
2017-10-20T22:57:08.113Z,14.50
2017-10-20T22:59:36.277Z,14.50
2017-10-20T23:02:04.981Z,14.50
2017-10-20T23:04:33.130Z,14.40
2017-10-20T23:07:01.311Z,13.90
2017-10-20T23:09:29.544Z,14.10
2017-10-20T23:11:59.638Z,14.20
2017-10-20T23:14:27.809Z,13.90
2017-10-20T23:16:56.013Z,14.10
2017-10-20T23:19:24.198Z,13.90
2017-10-20T23:21:53.149Z,14.20
2017-10-20T23:24:21.331Z,14.10
2017-10-20T23:26:49.490Z,14.20
2017-10-20T23:29:17.658Z,14.20
2017-10-20T23:31:46.616Z,14.20
2017-10-20T23:34:15.519Z,14.20
2017-10-20T23:36:44.634Z,14.20
2017-10-20T23:39:12.807Z,13.80
2017-10-20T23:41:41.015Z,13.80
2017-10-20T23:44:09.165Z,13.90
2017-10-20T23:46:37.361Z,13.60
2017-10-20T23:49:05.510Z,13.80
2017-10-20T23:51:33.691Z,13.50
2017-10-20T23:54:01.865Z,13.60
2017-10-20T23:56:30.031Z,13.80
2017-10-20T23:58:58.193Z,13.80
